LIC0243 LEBZ-LEBA

Flight info

Callsign LIC0243
Flight time 0h 54m
Altitude 7000
Route HIJ DCT MOCEQ
Aircraft C208/L-SDFGR/C

Departure

Time 2026-05-05 09:40
Airport Badajoz Airport (LEBZ)

Arrival

Time 2026-05-05 10:34
Airport Córdoba Airport (LEBA)
Time Latitude Longitude Altitude Speed Heading
2026-05-05 09:24 38.89402 -6.82075 596 ft 0 kts 123°
2026-05-05 09:36 38.89399 -6.82070 596 ft 2 kts 133°
2026-05-05 09:36 38.89375 -6.82071 595 ft 8 kts 214°
2026-05-05 09:36 38.89307 -6.82144 591 ft 16 kts 214°
2026-05-05 09:37 38.89196 -6.82197 588 ft 18 kts 152°
2026-05-05 09:37 38.89115 -6.82090 590 ft 15 kts 129°
2026-05-05 09:37 38.89059 -6.81995 592 ft 12 kts 128°
2026-05-05 09:37 38.89007 -6.81906 595 ft 13 kts 125°
2026-05-05 09:38 38.88945 -6.81800 597 ft 16 kts 126°
2026-05-05 09:38 38.88870 -6.81671 600 ft 18 kts 126°
2026-05-05 09:38 38.88785 -6.81534 603 ft 20 kts 130°
2026-05-05 09:38 38.88719 -6.81407 605 ft 7 kts 27°
2026-05-05 09:39 38.88741 -6.81430 606 ft 3 kts 305°
2026-05-05 09:39 38.88785 -6.81510 603 ft 28 kts 304°
2026-05-05 09:39 38.89029 -6.81957 596 ft 88 kts 295°
2026-05-05 09:39 38.89399 -6.82670 794 ft 102 kts 307°
2026-05-05 09:40 38.89877 -6.83374 1056 ft 106 kts 308°
2026-05-05 09:40 38.90469 -6.83991 1319 ft 113 kts 336°
2026-05-05 09:40 38.91216 -6.83968 1738 ft 108 kts 20°
2026-05-05 09:40 38.91754 -6.83309 2075 ft 109 kts 63°
2026-05-05 09:41 38.91821 -6.82337 2394 ft 113 kts 94°
2026-05-05 09:41 38.91697 -6.81339 2742 ft 113 kts 96°
2026-05-05 09:41 38.91526 -6.80355 3040 ft 113 kts 98°
2026-05-05 09:41 38.91331 -6.79390 3336 ft 113 kts 99°
2026-05-05 09:42 38.91119 -6.78403 3611 ft 115 kts 100°
2026-05-05 09:42 38.90899 -6.77418 3883 ft 116 kts 101°
2026-05-05 09:42 38.90659 -6.76426 4154 ft 117 kts 102°
2026-05-05 09:42 38.90423 -6.75439 4419 ft 117 kts 100°
2026-05-05 09:43 38.90201 -6.74429 4681 ft 118 kts 100°
2026-05-05 09:43 38.89972 -6.73410 4941 ft 119 kts 100°
2026-05-05 09:43 38.89737 -6.72382 5195 ft 120 kts 100°
2026-05-05 09:43 38.89503 -6.71364 5440 ft 121 kts 100°
2026-05-05 09:44 38.89264 -6.70332 5695 ft 121 kts 99°
2026-05-05 09:44 38.89022 -6.69285 5937 ft 122 kts 99°
2026-05-05 09:44 38.88780 -6.68239 6183 ft 123 kts 99°
2026-05-05 09:44 38.88535 -6.67185 6412 ft 124 kts 99°
2026-05-05 09:45 38.88289 -6.66122 6641 ft 125 kts 100°
2026-05-05 09:45 38.88042 -6.65050 6868 ft 127 kts 99°
2026-05-05 09:45 38.87786 -6.63947 7046 ft 132 kts 100°
2026-05-05 09:45 38.87511 -6.62750 7072 ft 148 kts 101°
2026-05-05 09:46 38.87207 -6.61444 7066 ft 158 kts 102°
2026-05-05 09:46 38.86881 -6.60066 7062 ft 163 kts 102°
2026-05-05 09:46 38.86553 -6.58678 7061 ft 165 kts 102°
2026-05-05 09:46 38.86220 -6.57258 7059 ft 166 kts 102°
2026-05-05 09:47 38.85883 -6.55823 7059 ft 167 kts 102°
2026-05-05 09:47 38.85552 -6.54402 7056 ft 168 kts 102°
2026-05-05 09:47 38.85214 -6.52955 7055 ft 168 kts 103°
2026-05-05 09:47 38.84879 -6.51522 7054 ft 168 kts 102°
2026-05-05 09:48 38.84546 -6.50095 7054 ft 168 kts 102°
2026-05-05 09:48 38.84205 -6.48641 7053 ft 169 kts 102°
2026-05-05 09:48 38.83873 -6.47219 7053 ft 169 kts 102°
2026-05-05 09:48 38.83534 -6.45770 7052 ft 168 kts 102°
2026-05-05 09:49 38.83199 -6.44339 7054 ft 168 kts 102°
2026-05-05 09:49 38.82859 -6.42893 7054 ft 169 kts 102°
2026-05-05 09:49 38.82524 -6.41460 7053 ft 169 kts 102°
2026-05-05 09:49 38.82188 -6.40025 7054 ft 169 kts 102°
2026-05-05 09:50 38.81847 -6.38574 7052 ft 169 kts 102°
2026-05-05 09:50 38.81511 -6.37145 7050 ft 169 kts 102°
2026-05-05 09:50 38.81171 -6.35697 7048 ft 169 kts 102°
2026-05-05 09:50 38.80834 -6.34261 7047 ft 168 kts 103°
2026-05-05 09:51 38.80492 -6.32813 7046 ft 169 kts 103°
2026-05-05 09:51 38.80154 -6.31374 7046 ft 168 kts 103°
2026-05-05 09:51 38.79814 -6.29934 7045 ft 169 kts 103°
2026-05-05 09:51 38.79479 -6.28506 7046 ft 169 kts 103°
2026-05-05 09:52 38.79136 -6.27057 7047 ft 169 kts 103°
2026-05-05 09:52 38.78799 -6.25633 7047 ft 169 kts 103°
2026-05-05 09:52 38.78460 -6.24190 7047 ft 168 kts 103°
2026-05-05 09:52 38.78120 -6.22754 7047 ft 169 kts 103°
2026-05-05 09:53 38.77779 -6.21310 7048 ft 169 kts 103°
2026-05-05 09:53 38.77439 -6.19876 7045 ft 169 kts 103°
2026-05-05 09:53 38.77099 -6.18443 7045 ft 169 kts 103°
2026-05-05 09:53 38.76757 -6.16995 7047 ft 169 kts 103°
2026-05-05 09:54 38.76417 -6.15562 7045 ft 169 kts 103°
2026-05-05 09:54 38.76075 -6.14126 7045 ft 169 kts 103°
2026-05-05 09:54 38.75733 -6.12685 7045 ft 169 kts 103°
2026-05-05 09:54 38.75389 -6.11232 7045 ft 169 kts 103°
2026-05-05 09:55 38.75048 -6.09799 7045 ft 169 kts 103°
2026-05-05 09:55 38.74703 -6.08349 7043 ft 169 kts 103°
2026-05-05 09:55 38.74360 -6.06908 7042 ft 169 kts 103°
2026-05-05 09:55 38.74018 -6.05467 7040 ft 169 kts 103°
2026-05-05 09:56 38.73677 -6.04038 7038 ft 169 kts 103°
2026-05-05 09:56 38.73334 -6.02599 7037 ft 169 kts 103°
2026-05-05 09:56 38.72990 -6.01159 7038 ft 169 kts 104°
2026-05-05 09:56 38.72648 -5.99720 7038 ft 169 kts 104°
2026-05-05 09:57 38.72304 -5.98283 7036 ft 169 kts 104°
2026-05-05 09:57 38.71957 -5.96828 7036 ft 169 kts 104°
2026-05-05 09:57 38.71613 -5.95393 7034 ft 169 kts 104°
2026-05-05 09:57 38.71269 -5.93956 7034 ft 169 kts 103°
2026-05-05 09:58 38.70927 -5.92524 7033 ft 169 kts 104°
2026-05-05 09:58 38.70580 -5.91076 7040 ft 169 kts 104°
2026-05-05 09:58 38.70235 -5.89639 7038 ft 169 kts 104°
2026-05-05 09:58 38.69891 -5.88207 7035 ft 169 kts 103°
2026-05-05 09:59 38.69545 -5.86762 7033 ft 169 kts 104°
2026-05-05 09:59 38.69199 -5.85324 7032 ft 169 kts 104°
2026-05-05 09:59 38.68857 -5.83889 7034 ft 169 kts 104°
2026-05-05 09:59 38.68512 -5.82454 7037 ft 169 kts 104°
2026-05-05 10:00 38.68162 -5.81007 7038 ft 169 kts 104°
2026-05-05 10:00 38.67816 -5.79573 7035 ft 169 kts 104°
2026-05-05 10:00 38.67470 -5.78130 7036 ft 169 kts 104°
2026-05-05 10:00 38.67126 -5.76700 7036 ft 170 kts 104°
2026-05-05 10:01 38.66775 -5.75247 7036 ft 170 kts 104°
2026-05-05 10:01 38.66426 -5.73802 7033 ft 170 kts 104°
2026-05-05 10:01 38.66079 -5.72363 7038 ft 169 kts 104°
2026-05-05 10:01 38.65730 -5.70921 7039 ft 170 kts 104°
2026-05-05 10:02 38.65381 -5.69477 7040 ft 170 kts 104°
2026-05-05 10:02 38.65034 -5.68043 7034 ft 170 kts 104°
2026-05-05 10:02 38.64681 -5.66585 7035 ft 169 kts 104°
2026-05-05 10:02 38.64334 -5.65146 7036 ft 169 kts 104°
2026-05-05 10:03 38.63986 -5.63711 7038 ft 170 kts 104°
2026-05-05 10:03 38.63634 -5.62261 7037 ft 170 kts 104°
2026-05-05 10:03 38.63285 -5.60819 7038 ft 170 kts 104°
2026-05-05 10:03 38.62935 -5.59381 7038 ft 170 kts 104°
2026-05-05 10:04 38.62584 -5.57931 7034 ft 170 kts 105°
2026-05-05 10:04 38.62236 -5.56498 7038 ft 170 kts 104°
2026-05-05 10:04 38.61879 -5.55040 7039 ft 170 kts 104°
2026-05-05 10:04 38.61528 -5.53596 7036 ft 170 kts 104°
2026-05-05 10:05 38.61180 -5.52165 7035 ft 170 kts 105°
2026-05-05 10:05 38.60827 -5.50712 7036 ft 170 kts 105°
2026-05-05 10:05 38.60478 -5.49283 7037 ft 170 kts 105°
2026-05-05 10:05 38.60123 -5.47828 7034 ft 170 kts 105°
2026-05-05 10:06 38.59770 -5.46383 7037 ft 170 kts 105°
2026-05-05 10:06 38.59417 -5.44938 7037 ft 170 kts 105°
2026-05-05 10:06 38.59066 -5.43499 7034 ft 170 kts 105°
2026-05-05 10:06 38.58715 -5.42061 7038 ft 170 kts 105°
2026-05-05 10:07 38.58361 -5.40619 7039 ft 171 kts 105°
2026-05-05 10:07 38.58004 -5.39160 7038 ft 171 kts 105°
2026-05-05 10:07 38.57647 -5.37708 7035 ft 171 kts 105°
2026-05-05 10:07 38.57295 -5.36267 7034 ft 170 kts 105°
2026-05-05 10:08 38.56943 -5.34830 7034 ft 170 kts 105°
2026-05-05 10:08 38.56588 -5.33384 7032 ft 170 kts 106°
2026-05-05 10:08 38.56234 -5.31937 7035 ft 169 kts 106°
2026-05-05 10:08 38.55883 -5.30511 7035 ft 170 kts 106°
2026-05-05 10:09 38.55528 -5.29066 7032 ft 170 kts 106°
2026-05-05 10:09 38.55174 -5.27630 7034 ft 170 kts 106°
2026-05-05 10:09 38.54818 -5.26185 7035 ft 170 kts 106°
2026-05-05 10:09 38.54465 -5.24754 7034 ft 170 kts 106°
2026-05-05 10:10 38.54110 -5.23307 7034 ft 170 kts 106°
2026-05-05 10:10 38.53756 -5.21873 7035 ft 170 kts 106°
2026-05-05 10:10 38.53399 -5.20426 7032 ft 170 kts 106°
2026-05-05 10:10 38.53043 -5.18980 7033 ft 170 kts 106°
2026-05-05 10:11 38.52687 -5.17540 7036 ft 170 kts 106°
2026-05-05 10:11 38.52332 -5.16105 7034 ft 170 kts 106°
2026-05-05 10:11 38.51979 -5.14678 7033 ft 170 kts 106°
2026-05-05 10:11 38.51624 -5.13244 7036 ft 170 kts 106°
2026-05-05 10:12 38.51264 -5.11789 7039 ft 170 kts 106°
2026-05-05 10:12 38.50907 -5.10363 7033 ft 170 kts 108°
2026-05-05 10:12 38.50357 -5.09019 7036 ft 170 kts 120°
2026-05-05 10:12 38.49748 -5.07720 7035 ft 170 kts 121°
2026-05-05 10:13 38.49126 -5.06426 7036 ft 171 kts 121°
2026-05-05 10:13 38.48510 -5.05145 7035 ft 171 kts 121°
2026-05-05 10:13 38.47886 -5.03843 7032 ft 170 kts 121°
2026-05-05 10:13 38.47267 -5.02554 7035 ft 170 kts 121°
2026-05-05 10:14 38.46652 -5.01270 7034 ft 170 kts 121°
2026-05-05 10:14 38.46033 -4.99980 7032 ft 170 kts 121°
2026-05-05 10:14 38.45421 -4.98705 7033 ft 170 kts 121°
2026-05-05 10:14 38.44801 -4.97414 7034 ft 170 kts 121°
2026-05-05 10:15 38.44180 -4.96119 7034 ft 170 kts 121°
2026-05-05 10:15 38.43562 -4.94830 7033 ft 170 kts 121°
2026-05-05 10:15 38.42942 -4.93541 7034 ft 170 kts 121°
2026-05-05 10:15 38.42318 -4.92242 7035 ft 170 kts 121°
2026-05-05 10:16 38.41701 -4.90955 7033 ft 170 kts 121°
2026-05-05 10:16 38.41086 -4.89675 7033 ft 170 kts 121°
2026-05-05 10:16 38.40465 -4.88384 7029 ft 171 kts 121°
2026-05-05 10:16 38.39848 -4.87100 7028 ft 170 kts 121°
2026-05-05 10:17 38.39225 -4.85808 7029 ft 170 kts 121°
2026-05-05 10:17 38.38609 -4.84527 7029 ft 170 kts 121°
2026-05-05 10:17 38.37984 -4.83230 7029 ft 170 kts 121°
2026-05-05 10:17 38.37363 -4.81941 7029 ft 171 kts 121°
2026-05-05 10:18 38.36747 -4.80663 7028 ft 171 kts 121°
2026-05-05 10:18 38.36126 -4.79374 7028 ft 171 kts 121°
2026-05-05 10:18 38.35502 -4.78080 7027 ft 171 kts 121°
2026-05-05 10:18 38.34876 -4.76783 7028 ft 171 kts 121°
2026-05-05 10:19 38.34259 -4.75507 7027 ft 171 kts 121°
2026-05-05 10:19 38.33632 -4.74208 7028 ft 171 kts 121°
2026-05-05 10:19 38.33015 -4.72933 7030 ft 170 kts 121°
2026-05-05 10:19 38.32389 -4.71635 7031 ft 171 kts 121°
2026-05-05 10:20 38.31772 -4.70358 7028 ft 171 kts 122°
2026-05-05 10:20 38.31127 -4.69074 7019 ft 171 kts 131°
2026-05-05 10:20 38.30157 -4.68249 7025 ft 167 kts 155°
2026-05-05 10:20 38.29110 -4.67618 7023 ft 167 kts 159°
2026-05-05 10:21 38.28031 -4.67020 7022 ft 167 kts 159°
2026-05-05 10:21 38.26960 -4.66428 7022 ft 167 kts 159°
2026-05-05 10:21 38.25894 -4.65834 7023 ft 167 kts 158°
2026-05-05 10:21 38.24831 -4.65243 7022 ft 167 kts 158°
2026-05-05 10:22 38.23766 -4.64647 7022 ft 167 kts 158°
2026-05-05 10:22 38.22700 -4.64053 7023 ft 167 kts 158°
2026-05-05 10:22 38.21626 -4.63453 7024 ft 167 kts 158°
2026-05-05 10:22 38.20552 -4.62855 6987 ft 169 kts 158°
2026-05-05 10:23 38.19497 -4.62275 6788 ft 165 kts 159°
2026-05-05 10:23 38.18451 -4.61690 6587 ft 162 kts 158°
2026-05-05 10:23 38.17393 -4.61311 6386 ft 157 kts 185°
2026-05-05 10:23 38.16305 -4.61456 6189 ft 155 kts 191°
2026-05-05 10:24 38.15255 -4.61669 5991 ft 155 kts 192°
2026-05-05 10:24 38.14187 -4.61902 5789 ft 154 kts 192°
2026-05-05 10:24 38.13122 -4.62106 5591 ft 154 kts 191°
2026-05-05 10:24 38.12061 -4.62312 5393 ft 154 kts 191°
2026-05-05 10:25 38.11012 -4.62517 5196 ft 153 kts 191°
2026-05-05 10:25 38.10016 -4.62916 5013 ft 149 kts 215°
2026-05-05 10:25 38.09162 -4.63597 4938 ft 142 kts 215°
2026-05-05 10:25 38.08334 -4.64285 4777 ft 143 kts 216°
2026-05-05 10:26 38.07498 -4.64994 4606 ft 145 kts 216°
2026-05-05 10:26 38.06657 -4.65714 4433 ft 145 kts 216°
2026-05-05 10:26 38.05818 -4.66434 4260 ft 145 kts 216°
2026-05-05 10:26 38.04990 -4.67151 4083 ft 142 kts 216°
2026-05-05 10:27 38.04194 -4.67841 3984 ft 136 kts 216°
2026-05-05 10:27 38.03434 -4.68496 3939 ft 129 kts 217°
2026-05-05 10:27 38.02687 -4.69143 3790 ft 131 kts 216°
2026-05-05 10:27 38.01931 -4.69802 3682 ft 128 kts 216°
2026-05-05 10:28 38.01222 -4.70418 3600 ft 121 kts 217°
2026-05-05 10:28 38.00536 -4.71012 3508 ft 117 kts 216°
2026-05-05 10:28 37.99867 -4.71596 3431 ft 115 kts 216°
2026-05-05 10:28 37.99210 -4.72166 3356 ft 114 kts 217°
2026-05-05 10:29 37.98541 -4.72748 3281 ft 116 kts 216°
2026-05-05 10:29 37.97872 -4.73328 3211 ft 118 kts 216°
2026-05-05 10:29 37.97188 -4.73925 3161 ft 118 kts 216°
2026-05-05 10:29 37.96514 -4.74512 3111 ft 118 kts 216°
2026-05-05 10:30 37.95837 -4.75104 3061 ft 118 kts 217°
2026-05-05 10:30 37.95157 -4.75697 3000 ft 119 kts 216°
2026-05-05 10:30 37.94470 -4.76297 2888 ft 123 kts 216°
2026-05-05 10:30 37.93747 -4.76929 2730 ft 128 kts 216°
2026-05-05 10:31 37.93000 -4.77583 2541 ft 132 kts 216°
2026-05-05 10:31 37.92286 -4.78207 2416 ft 122 kts 216°
2026-05-05 10:31 37.91591 -4.78814 2217 ft 122 kts 216°
2026-05-05 10:31 37.90895 -4.79422 2015 ft 121 kts 216°
2026-05-05 10:32 37.90202 -4.80027 1839 ft 116 kts 216°
2026-05-05 10:32 37.89558 -4.80585 1671 ft 110 kts 215°
2026-05-05 10:32 37.88931 -4.81173 1367 ft 112 kts 222°
2026-05-05 10:32 37.88364 -4.81804 1102 ft 105 kts 220°
2026-05-05 10:33 37.87793 -4.82327 898 ft 100 kts 213°
2026-05-05 10:33 37.87208 -4.82764 755 ft 94 kts 210°
2026-05-05 10:33 37.86652 -4.83157 645 ft 89 kts 210°
2026-05-05 10:33 37.86110 -4.83535 541 ft 85 kts 210°
2026-05-05 10:34 37.85598 -4.83901 430 ft 84 kts 210°
2026-05-05 10:34 37.85092 -4.84261 332 ft 82 kts 207°
2026-05-05 10:34 37.84652 -4.84573 303 ft 58 kts 206°
2026-05-05 10:34 37.84456 -4.84710 302 ft 18 kts 209°
2026-05-05 10:35 37.84357 -4.84720 302 ft 11 kts 126°
2026-05-05 10:35 37.84324 -4.84642 303 ft 6 kts 115°
2026-05-05 10:35 37.84276 -4.84624 303 ft 11 kts 201°
2026-05-05 10:35 37.84239 -4.84566 304 ft 5 kts 78°
2026-05-05 10:36 37.84258 -4.84558 304 ft 3 kts 326°
2026-05-05 10:36 37.84262 -4.84572 304 ft 0 kts 279°
2026-05-05 10:36 37.84264 -4.84578 304 ft 0 kts 297°
2026-05-05 10:36 37.84263 -4.84576 304 ft 0 kts 297°